sensor_id;sensor_type;location;lat;lon;timestamp;P1;durP1;ratioP1;P2;durP2;ratioP2
37973;SDS011;23796;51.458;7.000;2023-10-19T07:05:22;5.38;;;1.30;;
37973;SDS011;23796;51.458;7.000;2023-10-19T07:07:54;2.60;;;1.30;;
37973;SDS011;23796;51.458;7.000;2023-10-19T07:10:21;5.07;;;1.30;;
37973;SDS011;23796;51.458;7.000;2023-10-19T07:12:50;3.53;;;1.30;;
37973;SDS011;23796;51.458;7.000;2023-10-19T07:15:17;2.63;;;1.02;;
37973;SDS011;23796;51.458;7.000;2023-10-19T07:17:47;4.07;;;1.58;;
37973;SDS011;23796;51.458;7.000;2023-10-19T07:20:14;3.97;;;1.02;;
37973;SDS011;23796;51.458;7.000;2023-10-19T07:23:07;4.43;;;1.25;;
37973;SDS011;23796;51.458;7.000;2023-10-19T07:25:52;2.80;;;1.02;;
37973;SDS011;23796;51.458;7.000;2023-10-19T07:28:24;4.10;;;1.42;;
37973;SDS011;23796;51.458;7.000;2023-10-19T07:30:51;4.07;;;1.08;;
37973;SDS011;23796;51.458;7.000;2023-10-19T07:33:17;4.20;;;1.38;;
37973;SDS011;23796;51.458;7.000;2023-10-19T07:35:45;3.67;;;1.52;;
37973;SDS011;23796;51.458;7.000;2023-10-19T07:38:15;3.83;;;1.50;;
37973;SDS011;23796;51.458;7.000;2023-10-19T07:40:42;3.63;;;1.20;;
37973;SDS011;23796;51.458;7.000;2023-10-19T07:43:11;3.10;;;1.23;;
37973;SDS011;23796;51.458;7.000;2023-10-19T07:45:37;3.53;;;1.48;;
37973;SDS011;23796;51.458;7.000;2023-10-19T07:48:02;3.28;;;1.02;;
37973;SDS011;23796;51.458;7.000;2023-10-19T07:50:32;3.60;;;1.45;;
37973;SDS011;23796;51.458;7.000;2023-10-19T07:52:59;3.92;;;1.33;;
37973;SDS011;23796;51.458;7.000;2023-10-19T07:55:24;6.10;;;2.15;;
37973;SDS011;23796;51.458;7.000;2023-10-19T07:57:50;5.18;;;1.70;;
37973;SDS011;23796;51.458;7.000;2023-10-19T08:00:16;5.53;;;1.92;;
37973;SDS011;23796;51.458;7.000;2023-10-19T08:02:45;3.47;;;1.30;;
37973;SDS011;23796;51.458;7.000;2023-10-19T08:05:12;3.95;;;1.50;;
37973;SDS011;23796;51.458;7.000;2023-10-19T08:07:38;4.18;;;1.63;;
37973;SDS011;23796;51.458;7.000;2023-10-19T08:10:05;3.47;;;1.15;;
37973;SDS011;23796;51.458;7.000;2023-10-19T08:12:35;5.63;;;1.80;;
37973;SDS011;23796;51.458;7.000;2023-10-19T08:15:02;4.90;;;1.70;;
37973;SDS011;23796;51.458;7.000;2023-10-19T08:17:31;4.68;;;1.33;;
37973;SDS011;23796;51.458;7.000;2023-10-19T08:19:58;4.82;;;1.65;;
37973;SDS011;23796;51.458;7.000;2023-10-19T08:22:27;4.28;;;1.65;;
37973;SDS011;23796;51.458;7.000;2023-10-19T08:24:53;5.05;;;1.40;;
37973;SDS011;23796;51.458;7.000;2023-10-19T08:27:19;3.90;;;1.40;;
37973;SDS011;23796;51.458;7.000;2023-10-19T08:29:49;2.90;;;1.17;;
37973;SDS011;23796;51.458;7.000;2023-10-19T08:32:15;4.75;;;1.30;;
37973;SDS011;23796;51.458;7.000;2023-10-19T08:34:41;5.43;;;1.52;;
37973;SDS011;23796;51.458;7.000;2023-10-19T08:37:07;4.47;;;1.50;;
37973;SDS011;23796;51.458;7.000;2023-10-19T08:39:35;3.90;;;1.20;;
37973;SDS011;23796;51.458;7.000;2023-10-19T08:42:03;3.20;;;1.35;;
37973;SDS011;23796;51.458;7.000;2023-10-19T08:44:30;5.50;;;1.60;;
37973;SDS011;23796;51.458;7.000;2023-10-19T08:47:00;8.48;;;1.88;;
37973;SDS011;23796;51.458;7.000;2023-10-19T08:49:26;3.78;;;1.23;;
37973;SDS011;23796;51.458;7.000;2023-10-19T08:51:52;4.40;;;1.15;;
37973;SDS011;23796;51.458;7.000;2023-10-19T08:54:19;4.93;;;1.40;;
37973;SDS011;23796;51.458;7.000;2023-10-19T08:56:48;4.60;;;1.30;;
37973;SDS011;23796;51.458;7.000;2023-10-19T08:59:14;4.68;;;1.75;;
37973;SDS011;23796;51.458;7.000;2023-10-19T09:01:45;4.20;;;1.20;;
37973;SDS011;23796;51.458;7.000;2023-10-19T09:04:11;4.00;;;1.33;;
37973;SDS011;23796;51.458;7.000;2023-10-19T09:06:41;4.90;;;1.33;;
37973;SDS011;23796;51.458;7.000;2023-10-19T09:09:13;5.60;;;1.85;;
37973;SDS011;23796;51.458;7.000;2023-10-19T09:11:44;3.88;;;1.10;;
37973;SDS011;23796;51.458;7.000;2023-10-19T09:14:11;2.90;;;1.10;;
37973;SDS011;23796;51.458;7.000;2023-10-19T09:16:55;4.07;;;1.67;;
37973;SDS011;23796;51.458;7.000;2023-10-19T09:19:43;5.07;;;1.30;;
37973;SDS011;23796;51.458;7.000;2023-10-19T09:22:13;4.88;;;2.45;;
37973;SDS011;23796;51.458;7.000;2023-10-19T09:24:48;4.90;;;1.40;;
37973;SDS011;23796;51.458;7.000;2023-10-19T09:27:21;5.18;;;1.90;;
37973;SDS011;23796;51.458;7.000;2023-10-19T09:29:50;2.88;;;1.35;;
37973;SDS011;23796;51.458;7.000;2023-10-19T09:32:19;4.28;;;1.40;;
37973;SDS011;23796;51.458;7.000;2023-10-19T09:34:44;7.32;;;1.65;;
37973;SDS011;23796;51.458;7.000;2023-10-19T09:37:12;6.80;;;1.50;;
37973;SDS011;23796;51.458;7.000;2023-10-19T09:39:41;4.88;;;1.50;;
37973;SDS011;23796;51.458;7.000;2023-10-19T09:42:09;4.65;;;1.27;;
37973;SDS011;23796;51.458;7.000;2023-10-19T09:47:09;5.97;;;1.48;;
37973;SDS011;23796;51.458;7.000;2023-10-19T09:49:50;3.75;;;0.95;;
37973;SDS011;23796;51.458;7.000;2023-10-19T09:52:16;7.30;;;2.50;;
37973;SDS011;23796;51.458;7.000;2023-10-19T09:55:03;4.32;;;1.30;;
37973;SDS011;23796;51.458;7.000;2023-10-19T09:58:09;4.00;;;1.10;;
37973;SDS011;23796;51.458;7.000;2023-10-19T10:00:47;4.35;;;1.25;;
37973;SDS011;23796;51.458;7.000;2023-10-19T10:06:27;6.72;;;2.10;;
37973;SDS011;23796;51.458;7.000;2023-10-19T10:09:12;7.20;;;1.52;;
37973;SDS011;23796;51.458;7.000;2023-10-19T10:11:37;4.95;;;1.40;;
37973;SDS011;23796;51.458;7.000;2023-10-19T10:14:19;5.90;;;1.10;;
37973;SDS011;23796;51.458;7.000;2023-10-19T10:19:27;6.20;;;1.45;;
37973;SDS011;23796;51.458;7.000;2023-10-19T10:22:09;7.47;;;2.78;;
37973;SDS011;23796;51.458;7.000;2023-10-19T10:24:42;5.32;;;1.63;;
37973;SDS011;23796;51.458;7.000;2023-10-19T10:27:08;5.13;;;1.88;;
37973;SDS011;23796;51.458;7.000;2023-10-19T10:29:35;6.65;;;1.75;;
37973;SDS011;23796;51.458;7.000;2023-10-19T10:32:01;4.88;;;1.50;;
37973;SDS011;23796;51.458;7.000;2023-10-19T10:39:27;5.57;;;2.00;;
37973;SDS011;23796;51.458;7.000;2023-10-19T10:41:56;5.93;;;1.70;;
37973;SDS011;23796;51.458;7.000;2023-10-19T10:44:44;5.80;;;2.00;;
37973;SDS011;23796;51.458;7.000;2023-10-19T10:47:17;6.03;;;1.42;;
37973;SDS011;23796;51.458;7.000;2023-10-19T10:52:24;5.60;;;1.33;;
37973;SDS011;23796;51.458;7.000;2023-10-19T10:54:57;6.15;;;1.35;;
37973;SDS011;23796;51.458;7.000;2023-10-19T10:57:31;4.50;;;1.35;;
37973;SDS011;23796;51.458;7.000;2023-10-19T11:00:02;7.57;;;1.65;;
37973;SDS011;23796;51.458;7.000;2023-10-19T11:02:29;5.20;;;2.05;;
37973;SDS011;23796;51.458;7.000;2023-10-19T11:04:57;7.28;;;2.65;;
37973;SDS011;23796;51.458;7.000;2023-10-19T11:07:23;7.72;;;2.88;;
37973;SDS011;23796;51.458;7.000;2023-10-19T11:09:49;6.85;;;1.88;;
37973;SDS011;23796;51.458;7.000;2023-10-19T11:12:14;5.50;;;1.98;;
37973;SDS011;23796;51.458;7.000;2023-10-19T11:14:56;8.20;;;3.40;;
37973;SDS011;23796;51.458;7.000;2023-10-19T11:17:27;8.38;;;4.47;;
37973;SDS011;23796;51.458;7.000;2023-10-19T11:19:57;5.80;;;1.90;;
37973;SDS011;23796;51.458;7.000;2023-10-19T11:22:24;6.22;;;1.63;;
37973;SDS011;23796;51.458;7.000;2023-10-19T11:24:51;5.20;;;2.08;;
37973;SDS011;23796;51.458;7.000;2023-10-19T11:27:27;4.90;;;1.50;;
37973;SDS011;23796;51.458;7.000;2023-10-19T11:29:57;6.55;;;2.10;;
37973;SDS011;23796;51.458;7.000;2023-10-19T11:32:35;6.53;;;1.95;;
37973;SDS011;23796;51.458;7.000;2023-10-19T11:35:05;7.53;;;2.05;;
37973;SDS011;23796;51.458;7.000;2023-10-19T11:37:50;6.82;;;1.88;;
37973;SDS011;23796;51.458;7.000;2023-10-19T11:40:18;7.50;;;1.40;;
37973;SDS011;23796;51.458;7.000;2023-10-19T11:42:50;7.47;;;1.60;;
37973;SDS011;23796;51.458;7.000;2023-10-19T11:45:17;5.95;;;2.55;;
37973;SDS011;23796;51.458;7.000;2023-10-19T11:47:44;10.40;;;6.50;;
37973;SDS011;23796;51.458;7.000;2023-10-19T11:50:10;6.28;;;1.95;;
37973;SDS011;23796;51.458;7.000;2023-10-19T11:52:40;4.85;;;1.83;;
37973;SDS011;23796;51.458;7.000;2023-10-19T11:55:07;5.88;;;1.20;;
37973;SDS011;23796;51.458;7.000;2023-10-19T11:57:36;6.80;;;2.22;;
37973;SDS011;23796;51.458;7.000;2023-10-19T12:00:08;5.07;;;1.60;;
37973;SDS011;23796;51.458;7.000;2023-10-19T12:02:38;8.27;;;2.38;;
37973;SDS011;23796;51.458;7.000;2023-10-19T12:05:09;5.78;;;1.30;;
37973;SDS011;23796;51.458;7.000;2023-10-19T12:07:38;4.35;;;1.40;;
37973;SDS011;23796;51.458;7.000;2023-10-19T12:10:07;6.53;;;1.40;;
37973;SDS011;23796;51.458;7.000;2023-10-19T12:12:35;5.70;;;1.77;;
37973;SDS011;23796;51.458;7.000;2023-10-19T12:15:02;4.95;;;1.63;;
37973;SDS011;23796;51.458;7.000;2023-10-19T12:17:34;4.50;;;1.38;;
37973;SDS011;23796;51.458;7.000;2023-10-19T12:20:00;6.82;;;1.98;;
37973;SDS011;23796;51.458;7.000;2023-10-19T12:22:25;6.40;;;1.40;;
37973;SDS011;23796;51.458;7.000;2023-10-19T12:24:57;6.85;;;2.60;;
37973;SDS011;23796;51.458;7.000;2023-10-19T12:27:24;4.40;;;1.45;;
37973;SDS011;23796;51.458;7.000;2023-10-19T12:29:50;4.05;;;1.27;;
37973;SDS011;23796;51.458;7.000;2023-10-19T12:32:17;4.43;;;1.40;;
37973;SDS011;23796;51.458;7.000;2023-10-19T12:34:43;4.07;;;1.17;;
37973;SDS011;23796;51.458;7.000;2023-10-19T12:37:09;4.10;;;1.17;;
37973;SDS011;23796;51.458;7.000;2023-10-19T12:39:37;6.57;;;1.33;;
37973;SDS011;23796;51.458;7.000;2023-10-19T12:42:14;5.75;;;1.20;;
37973;SDS011;23796;51.458;7.000;2023-10-19T12:44:40;5.35;;;1.90;;
37973;SDS011;23796;51.458;7.000;2023-10-19T12:47:08;6.82;;;1.83;;
37973;SDS011;23796;51.458;7.000;2023-10-19T12:49:36;7.30;;;1.60;;
37973;SDS011;23796;51.458;7.000;2023-10-19T12:52:02;5.68;;;1.52;;
37973;SDS011;23796;51.458;7.000;2023-10-19T12:54:32;7.57;;;1.98;;
37973;SDS011;23796;51.458;7.000;2023-10-19T12:56:59;6.50;;;2.80;;
37973;SDS011;23796;51.458;7.000;2023-10-19T12:59:25;5.03;;;1.48;;
37973;SDS011;23796;51.458;7.000;2023-10-19T13:01:51;5.70;;;1.75;;
37973;SDS011;23796;51.458;7.000;2023-10-19T13:04:22;5.07;;;2.20;;
37973;SDS011;23796;51.458;7.000;2023-10-19T13:06:51;4.57;;;1.42;;
37973;SDS011;23796;51.458;7.000;2023-10-19T13:09:17;6.90;;;2.10;;
37973;SDS011;23796;51.458;7.000;2023-10-19T13:11:49;8.95;;;2.00;;
37973;SDS011;23796;51.458;7.000;2023-10-19T13:14:20;5.63;;;1.40;;
37973;SDS011;23796;51.458;7.000;2023-10-19T13:16:45;7.88;;;2.25;;
37973;SDS011;23796;51.458;7.000;2023-10-19T13:19:15;6.68;;;1.70;;
37973;SDS011;23796;51.458;7.000;2023-10-19T13:21:45;5.95;;;1.70;;
37973;SDS011;23796;51.458;7.000;2023-10-19T13:24:10;5.68;;;1.65;;
37973;SDS011;23796;51.458;7.000;2023-10-19T13:26:38;6.63;;;1.60;;
37973;SDS011;23796;51.458;7.000;2023-10-19T13:29:09;5.65;;;2.10;;
37973;SDS011;23796;51.458;7.000;2023-10-19T13:31:35;5.20;;;1.92;;
37973;SDS011;23796;51.458;7.000;2023-10-19T13:34:01;6.70;;;1.40;;
37973;SDS011;23796;51.458;7.000;2023-10-19T13:36:28;4.35;;;1.40;;
37973;SDS011;23796;51.458;7.000;2023-10-19T13:38:54;5.75;;;2.60;;
37973;SDS011;23796;51.458;7.000;2023-10-19T13:41:19;7.90;;;1.92;;
37973;SDS011;23796;51.458;7.000;2023-10-19T13:43:45;7.40;;;2.13;;
37973;SDS011;23796;51.458;7.000;2023-10-19T13:46:12;5.80;;;1.38;;
37973;SDS011;23796;51.458;7.000;2023-10-19T13:48:38;7.10;;;2.08;;
37973;SDS011;23796;51.458;7.000;2023-10-19T13:51:04;8.13;;;1.90;;
37973;SDS011;23796;51.458;7.000;2023-10-19T13:53:40;6.18;;;1.67;;
37973;SDS011;23796;51.458;7.000;2023-10-19T13:56:09;10.40;;;2.72;;
37973;SDS011;23796;51.458;7.000;2023-10-19T13:58:39;5.13;;;1.42;;
37973;SDS011;23796;51.458;7.000;2023-10-19T14:01:08;7.93;;;2.30;;
37973;SDS011;23796;51.458;7.000;2023-10-19T14:03:35;6.07;;;1.60;;
37973;SDS011;23796;51.458;7.000;2023-10-19T14:06:02;6.50;;;2.03;;
37973;SDS011;23796;51.458;7.000;2023-10-19T14:08:31;4.97;;;1.75;;
37973;SDS011;23796;51.458;7.000;2023-10-19T14:11:01;6.45;;;1.67;;
37973;SDS011;23796;51.458;7.000;2023-10-19T14:13:30;7.40;;;2.00;;
37973;SDS011;23796;51.458;7.000;2023-10-19T14:15:55;3.88;;;1.45;;
37973;SDS011;23796;51.458;7.000;2023-10-19T14:18:23;4.32;;;1.95;;
37973;SDS011;23796;51.458;7.000;2023-10-19T14:20:49;7.22;;;2.30;;
37973;SDS011;23796;51.458;7.000;2023-10-19T14:23:17;6.10;;;1.40;;
37973;SDS011;23796;51.458;7.000;2023-10-19T14:25:42;5.45;;;1.67;;
37973;SDS011;23796;51.458;7.000;2023-10-19T14:28:09;6.40;;;2.20;;
37973;SDS011;23796;51.458;7.000;2023-10-19T14:30:35;9.23;;;3.80;;
37973;SDS011;23796;51.458;7.000;2023-10-19T14:33:01;5.68;;;1.48;;
37973;SDS011;23796;51.458;7.000;2023-10-19T14:35:27;10.00;;;2.22;;
37973;SDS011;23796;51.458;7.000;2023-10-19T14:37:53;5.65;;;1.73;;
37973;SDS011;23796;51.458;7.000;2023-10-19T14:40:21;5.43;;;1.50;;
37973;SDS011;23796;51.458;7.000;2023-10-19T14:42:55;6.63;;;1.90;;
37973;SDS011;23796;51.458;7.000;2023-10-19T14:45:23;5.43;;;1.88;;
37973;SDS011;23796;51.458;7.000;2023-10-19T14:47:54;6.72;;;1.80;;
37973;SDS011;23796;51.458;7.000;2023-10-19T14:50:21;4.75;;;1.38;;
37973;SDS011;23796;51.458;7.000;2023-10-19T14:52:48;5.05;;;1.58;;
37973;SDS011;23796;51.458;7.000;2023-10-19T14:55:16;5.35;;;1.75;;
37973;SDS011;23796;51.458;7.000;2023-10-19T14:57:43;6.95;;;1.58;;
37973;SDS011;23796;51.458;7.000;2023-10-19T15:00:14;6.07;;;2.10;;
37973;SDS011;23796;51.458;7.000;2023-10-19T15:02:41;5.70;;;2.28;;
37973;SDS011;23796;51.458;7.000;2023-10-19T15:05:08;4.78;;;1.52;;
37973;SDS011;23796;51.458;7.000;2023-10-19T15:07:37;4.88;;;1.50;;
37973;SDS011;23796;51.458;7.000;2023-10-19T15:10:03;4.93;;;2.17;;
37973;SDS011;23796;51.458;7.000;2023-10-19T15:12:34;3.63;;;1.20;;
37973;SDS011;23796;51.458;7.000;2023-10-19T15:15:04;4.25;;;1.52;;
37973;SDS011;23796;51.458;7.000;2023-10-19T15:17:34;6.07;;;1.75;;
37973;SDS011;23796;51.458;7.000;2023-10-19T15:20:03;5.40;;;1.90;;
37973;SDS011;23796;51.458;7.000;2023-10-19T15:22:30;5.13;;;1.67;;
37973;SDS011;23796;51.458;7.000;2023-10-19T15:24:57;5.13;;;1.30;;
37973;SDS011;23796;51.458;7.000;2023-10-19T15:27:23;4.60;;;1.60;;
37973;SDS011;23796;51.458;7.000;2023-10-19T15:29:49;5.35;;;1.60;;
37973;SDS011;23796;51.458;7.000;2023-10-19T15:32:14;5.50;;;1.88;;
37973;SDS011;23796;51.458;7.000;2023-10-19T15:34:43;7.07;;;1.65;;
37973;SDS011;23796;51.458;7.000;2023-10-19T15:37:09;6.82;;;1.95;;
37973;SDS011;23796;51.458;7.000;2023-10-19T15:39:37;4.85;;;1.70;;
37973;SDS011;23796;51.458;7.000;2023-10-19T15:42:03;5.10;;;1.45;;
37973;SDS011;23796;51.458;7.000;2023-10-19T15:44:33;5.97;;;1.60;;
37973;SDS011;23796;51.458;7.000;2023-10-19T15:47:00;5.78;;;1.58;;
37973;SDS011;23796;51.458;7.000;2023-10-19T15:49:26;4.97;;;1.25;;
37973;SDS011;23796;51.458;7.000;2023-10-19T15:51:52;6.15;;;1.98;;
37973;SDS011;23796;51.458;7.000;2023-10-19T15:54:20;3.60;;;1.33;;
37973;SDS011;23796;51.458;7.000;2023-10-19T15:56:48;5.43;;;1.40;;
37973;SDS011;23796;51.458;7.000;2023-10-19T15:59:14;5.20;;;1.55;;
37973;SDS011;23796;51.458;7.000;2023-10-19T16:01:39;4.75;;;1.55;;
37973;SDS011;23796;51.458;7.000;2023-10-19T16:04:05;5.40;;;1.70;;
37973;SDS011;23796;51.458;7.000;2023-10-19T16:06:31;7.07;;;2.10;;
37973;SDS011;23796;51.458;7.000;2023-10-19T16:08:56;5.78;;;1.65;;
37973;SDS011;23796;51.458;7.000;2023-10-19T16:11:22;4.10;;;1.70;;
37973;SDS011;23796;51.458;7.000;2023-10-19T16:13:47;5.55;;;1.60;;
37973;SDS011;23796;51.458;7.000;2023-10-19T16:16:13;5.85;;;1.48;;
37973;SDS011;23796;51.458;7.000;2023-10-19T16:18:38;5.25;;;1.75;;
37973;SDS011;23796;51.458;7.000;2023-10-19T16:21:05;7.25;;;2.10;;
37973;SDS011;23796;51.458;7.000;2023-10-19T16:23:31;4.63;;;1.63;;
37973;SDS011;23796;51.458;7.000;2023-10-19T16:26:00;5.53;;;1.40;;
37973;SDS011;23796;51.458;7.000;2023-10-19T16:28:26;5.88;;;1.83;;
37973;SDS011;23796;51.458;7.000;2023-10-19T16:30:53;4.32;;;1.30;;
37973;SDS011;23796;51.458;7.000;2023-10-19T16:33:20;5.50;;;1.73;;
37973;SDS011;23796;51.458;7.000;2023-10-19T16:35:48;4.07;;;1.95;;
37973;SDS011;23796;51.458;7.000;2023-10-19T16:38:17;5.78;;;1.80;;
37973;SDS011;23796;51.458;7.000;2023-10-19T16:40:44;8.80;;;6.72;;
37973;SDS011;23796;51.458;7.000;2023-10-19T16:43:12;3.67;;;1.70;;
37973;SDS011;23796;51.458;7.000;2023-10-19T16:45:38;5.28;;;1.70;;
37973;SDS011;23796;51.458;7.000;2023-10-19T16:48:06;4.85;;;1.80;;
37973;SDS011;23796;51.458;7.000;2023-10-19T16:50:32;5.00;;;1.75;;
37973;SDS011;23796;51.458;7.000;2023-10-19T16:52:58;4.22;;;1.77;;
37973;SDS011;23796;51.458;7.000;2023-10-19T16:55:26;6.38;;;2.08;;
37973;SDS011;23796;51.458;7.000;2023-10-19T16:57:52;7.40;;;2.10;;
37973;SDS011;23796;51.458;7.000;2023-10-19T17:00:26;5.20;;;2.30;;
37973;SDS011;23796;51.458;7.000;2023-10-19T17:02:56;5.10;;;1.85;;
37973;SDS011;23796;51.458;7.000;2023-10-19T17:05:24;5.88;;;2.25;;
37973;SDS011;23796;51.458;7.000;2023-10-19T17:07:51;7.10;;;2.28;;
37973;SDS011;23796;51.458;7.000;2023-10-19T17:10:16;5.25;;;2.00;;
37973;SDS011;23796;51.458;7.000;2023-10-19T17:12:42;4.70;;;1.88;;
37973;SDS011;23796;51.458;7.000;2023-10-19T17:15:08;5.70;;;2.15;;
37973;SDS011;23796;51.458;7.000;2023-10-19T17:17:37;6.05;;;2.20;;
37973;SDS011;23796;51.458;7.000;2023-10-19T17:20:03;5.57;;;2.35;;
37973;SDS011;23796;51.458;7.000;2023-10-19T17:22:29;5.60;;;1.95;;
37973;SDS011;23796;51.458;7.000;2023-10-19T17:24:56;4.57;;;2.10;;
37973;SDS011;23796;51.458;7.000;2023-10-19T17:27:24;4.35;;;1.95;;
37973;SDS011;23796;51.458;7.000;2023-10-19T17:29:50;8.15;;;2.90;;
37973;SDS011;23796;51.458;7.000;2023-10-19T17:32:16;5.68;;;2.38;;
37973;SDS011;23796;51.458;7.000;2023-10-19T17:34:42;6.15;;;2.65;;
37973;SDS011;23796;51.458;7.000;2023-10-19T17:37:07;5.97;;;2.83;;
37973;SDS011;23796;51.458;7.000;2023-10-19T17:39:33;5.75;;;2.00;;
37973;SDS011;23796;51.458;7.000;2023-10-19T17:41:59;7.78;;;2.40;;
37973;SDS011;23796;51.458;7.000;2023-10-19T17:44:25;3.80;;;1.90;;
37973;SDS011;23796;51.458;7.000;2023-10-19T17:46:51;5.32;;;2.10;;
37973;SDS011;23796;51.458;7.000;2023-10-19T17:49:17;4.78;;;2.10;;
37973;SDS011;23796;51.458;7.000;2023-10-19T17:51:45;5.55;;;2.33;;
37973;SDS011;23796;51.458;7.000;2023-10-19T17:54:11;4.57;;;2.22;;
37973;SDS011;23796;51.458;7.000;2023-10-19T17:56:37;4.25;;;1.90;;
37973;SDS011;23796;51.458;7.000;2023-10-19T17:59:03;5.90;;;2.17;;
37973;SDS011;23796;51.458;7.000;2023-10-19T18:01:29;3.75;;;2.00;;
37973;SDS011;23796;51.458;7.000;2023-10-19T18:03:55;4.65;;;2.55;;
37973;SDS011;23796;51.458;7.000;2023-10-19T18:06:21;6.90;;;3.10;;
37973;SDS011;23796;51.458;7.000;2023-10-19T18:08:47;5.22;;;2.40;;
37973;SDS011;23796;51.458;7.000;2023-10-19T18:11:14;6.35;;;2.55;;
37973;SDS011;23796;51.458;7.000;2023-10-19T18:13:43;5.82;;;2.78;;
37973;SDS011;23796;51.458;7.000;2023-10-19T18:16:09;6.07;;;2.85;;
37973;SDS011;23796;51.458;7.000;2023-10-19T18:18:38;6.85;;;2.72;;
37973;SDS011;23796;51.458;7.000;2023-10-19T18:21:12;5.25;;;2.45;;
37973;SDS011;23796;51.458;7.000;2023-10-19T18:23:39;5.63;;;2.60;;
37973;SDS011;23796;51.458;7.000;2023-10-19T18:26:16;5.85;;;2.60;;
37973;SDS011;23796;51.458;7.000;2023-10-19T18:28:42;4.63;;;2.50;;
37973;SDS011;23796;51.458;7.000;2023-10-19T18:31:09;5.78;;;2.55;;
37973;SDS011;23796;51.458;7.000;2023-10-19T18:33:38;3.90;;;2.30;;
37973;SDS011;23796;51.458;7.000;2023-10-19T18:36:06;4.70;;;2.63;;
37973;SDS011;23796;51.458;7.000;2023-10-19T18:38:34;7.18;;;2.83;;
37973;SDS011;23796;51.458;7.000;2023-10-19T18:41:04;4.97;;;2.70;;
37973;SDS011;23796;51.458;7.000;2023-10-19T18:43:33;5.97;;;2.65;;
37973;SDS011;23796;51.458;7.000;2023-10-19T18:46:02;5.25;;;3.08;;
37973;SDS011;23796;51.458;7.000;2023-10-19T18:48:57;4.63;;;2.67;;
37973;SDS011;23796;51.458;7.000;2023-10-19T18:51:23;5.00;;;2.75;;
37973;SDS011;23796;51.458;7.000;2023-10-19T18:53:50;5.88;;;2.72;;
37973;SDS011;23796;51.458;7.000;2023-10-19T18:56:16;6.13;;;2.70;;
37973;SDS011;23796;51.458;7.000;2023-10-19T18:58:44;5.05;;;2.70;;
37973;SDS011;23796;51.458;7.000;2023-10-19T19:01:09;4.97;;;2.40;;
37973;SDS011;23796;51.458;7.000;2023-10-19T19:03:35;5.25;;;2.97;;
37973;SDS011;23796;51.458;7.000;2023-10-19T19:06:02;8.18;;;3.05;;
37973;SDS011;23796;51.458;7.000;2023-10-19T19:08:30;4.72;;;2.97;;
37973;SDS011;23796;51.458;7.000;2023-10-19T19:10:56;7.05;;;2.83;;
37973;SDS011;23796;51.458;7.000;2023-10-19T19:13:22;5.63;;;2.92;;
37973;SDS011;23796;51.458;7.000;2023-10-19T19:15:52;5.07;;;2.35;;
37973;SDS011;23796;51.458;7.000;2023-10-19T19:18:22;5.43;;;3.08;;
37973;SDS011;23796;51.458;7.000;2023-10-19T19:20:48;5.00;;;3.30;;
37973;SDS011;23796;51.458;7.000;2023-10-19T19:23:13;5.93;;;3.03;;
37973;SDS011;23796;51.458;7.000;2023-10-19T19:25:48;6.18;;;3.17;;
37973;SDS011;23796;51.458;7.000;2023-10-19T19:28:17;5.18;;;3.05;;
37973;SDS011;23796;51.458;7.000;2023-10-19T19:30:43;4.35;;;2.90;;
37973;SDS011;23796;51.458;7.000;2023-10-19T19:33:11;6.15;;;3.28;;
37973;SDS011;23796;51.458;7.000;2023-10-19T19:35:39;7.32;;;3.53;;
37973;SDS011;23796;51.458;7.000;2023-10-19T19:38:04;4.28;;;3.05;;
37973;SDS011;23796;51.458;7.000;2023-10-19T19:40:30;5.65;;;3.35;;
37973;SDS011;23796;51.458;7.000;2023-10-19T19:42:56;6.75;;;3.33;;
37973;SDS011;23796;51.458;7.000;2023-10-19T19:45:22;5.57;;;3.15;;
37973;SDS011;23796;51.458;7.000;2023-10-19T19:47:48;5.65;;;3.15;;
37973;SDS011;23796;51.458;7.000;2023-10-19T19:50:16;5.32;;;3.50;;
37973;SDS011;23796;51.458;7.000;2023-10-19T19:52:42;5.53;;;3.13;;
37973;SDS011;23796;51.458;7.000;2023-10-19T19:55:08;6.05;;;3.75;;
37973;SDS011;23796;51.458;7.000;2023-10-19T19:57:38;5.35;;;3.30;;
37973;SDS011;23796;51.458;7.000;2023-10-19T20:00:09;4.63;;;3.15;;
37973;SDS011;23796;51.458;7.000;2023-10-19T20:02:40;7.75;;;6.90;;
37973;SDS011;23796;51.458;7.000;2023-10-19T20:05:09;7.25;;;3.70;;
37973;SDS011;23796;51.458;7.000;2023-10-19T20:07:36;6.38;;;3.97;;
37973;SDS011;23796;51.458;7.000;2023-10-19T20:10:05;6.20;;;3.42;;
37973;SDS011;23796;51.458;7.000;2023-10-19T20:12:33;6.93;;;3.45;;
37973;SDS011;23796;51.458;7.000;2023-10-19T20:14:59;4.82;;;3.40;;
37973;SDS011;23796;51.458;7.000;2023-10-19T20:17:25;6.72;;;3.67;;
37973;SDS011;23796;51.458;7.000;2023-10-19T20:19:51;5.35;;;3.47;;
37973;SDS011;23796;51.458;7.000;2023-10-19T20:22:19;4.60;;;3.35;;
37973;SDS011;23796;51.458;7.000;2023-10-19T20:24:45;6.35;;;3.35;;
37973;SDS011;23796;51.458;7.000;2023-10-19T20:27:12;5.32;;;3.25;;
37973;SDS011;23796;51.458;7.000;2023-10-19T20:29:38;5.78;;;3.08;;
37973;SDS011;23796;51.458;7.000;2023-10-19T20:32:06;5.57;;;3.42;;
37973;SDS011;23796;51.458;7.000;2023-10-19T20:34:32;9.40;;;8.40;;
37973;SDS011;23796;51.458;7.000;2023-10-19T20:37:01;5.63;;;3.65;;
37973;SDS011;23796;51.458;7.000;2023-10-19T20:39:26;5.15;;;3.80;;
37973;SDS011;23796;51.458;7.000;2023-10-19T20:41:52;6.22;;;3.58;;
37973;SDS011;23796;51.458;7.000;2023-10-19T20:44:19;4.35;;;3.30;;
37973;SDS011;23796;51.458;7.000;2023-10-19T20:46:49;6.68;;;3.30;;
37973;SDS011;23796;51.458;7.000;2023-10-19T20:49:18;4.47;;;3.10;;
37973;SDS011;23796;51.458;7.000;2023-10-19T20:51:43;4.00;;;3.13;;
37973;SDS011;23796;51.458;7.000;2023-10-19T20:54:09;6.70;;;3.35;;
37973;SDS011;23796;51.458;7.000;2023-10-19T20:56:39;4.95;;;3.63;;
37973;SDS011;23796;51.458;7.000;2023-10-19T20:59:05;4.68;;;3.40;;
37973;SDS011;23796;51.458;7.000;2023-10-19T21:01:31;4.90;;;3.45;;
37973;SDS011;23796;51.458;7.000;2023-10-19T21:03:56;4.72;;;3.38;;
37973;SDS011;23796;51.458;7.000;2023-10-19T21:06:24;6.53;;;3.83;;
37973;SDS011;23796;51.458;7.000;2023-10-19T21:08:51;5.30;;;3.72;;
37973;SDS011;23796;51.458;7.000;2023-10-19T21:11:20;4.50;;;3.42;;
37973;SDS011;23796;51.458;7.000;2023-10-19T21:13:46;5.75;;;3.25;;
37973;SDS011;23796;51.458;7.000;2023-10-19T21:16:13;4.18;;;3.05;;
37973;SDS011;23796;51.458;7.000;2023-10-19T21:18:41;6.10;;;3.70;;
37973;SDS011;23796;51.458;7.000;2023-10-19T21:21:07;6.63;;;4.15;;
37973;SDS011;23796;51.458;7.000;2023-10-19T21:23:34;5.50;;;3.78;;
37973;SDS011;23796;51.458;7.000;2023-10-19T21:25:59;7.55;;;4.50;;
37973;SDS011;23796;51.458;7.000;2023-10-19T21:28:25;6.50;;;4.20;;
37973;SDS011;23796;51.458;7.000;2023-10-19T21:30:51;6.35;;;3.83;;
37973;SDS011;23796;51.458;7.000;2023-10-19T21:33:17;5.70;;;4.53;;
37973;SDS011;23796;51.458;7.000;2023-10-19T21:35:43;5.65;;;4.57;;
37973;SDS011;23796;51.458;7.000;2023-10-19T21:38:09;5.35;;;4.18;;
37973;SDS011;23796;51.458;7.000;2023-10-19T21:40:41;7.72;;;4.70;;
37973;SDS011;23796;51.458;7.000;2023-10-19T21:43:13;5.53;;;4.43;;
37973;SDS011;23796;51.458;7.000;2023-10-19T21:45:39;6.00;;;4.82;;
37973;SDS011;23796;51.458;7.000;2023-10-19T21:48:08;5.90;;;4.65;;
37973;SDS011;23796;51.458;7.000;2023-10-19T21:50:35;7.55;;;4.75;;
37973;SDS011;23796;51.458;7.000;2023-10-19T21:53:01;7.47;;;4.82;;
37973;SDS011;23796;51.458;7.000;2023-10-19T21:55:33;6.13;;;4.32;;
37973;SDS011;23796;51.458;7.000;2023-10-19T21:57:59;5.32;;;4.20;;
37973;SDS011;23796;51.458;7.000;2023-10-19T22:00:28;7.20;;;4.60;;
37973;SDS011;23796;51.458;7.000;2023-10-19T22:02:57;5.50;;;4.90;;
37973;SDS011;23796;51.458;7.000;2023-10-19T22:05:23;6.22;;;4.53;;
37973;SDS011;23796;51.458;7.000;2023-10-19T22:07:51;6.40;;;4.55;;
37973;SDS011;23796;51.458;7.000;2023-10-19T22:10:17;6.60;;;4.57;;
37973;SDS011;23796;51.458;7.000;2023-10-19T22:12:45;8.98;;;4.40;;
37973;SDS011;23796;51.458;7.000;2023-10-19T22:15:14;6.53;;;5.30;;